Terminal Aerodrome Forecast
Issued by NWS Green Bay, WI

Home | Current Version | Previous Version | Graphics & Text | Print | Product List | Glossary On
Versions: 1 2 3 4 5 6 7 8 9 10 11 12 13 14 15 16 17 18 19 20 21 22 23 24 25 26 27 28
000
FTUS43 KGRB 280919 AAA
TAFGRB
TAF AMD
KGRB 280919Z 2809/2906 18006KT 6SM BR SCT015 BKN040
      TEMPO 2809/2812 4SM -SHRA BR BKN012
     FM281200 16006KT 3SM BR OVC006
     FM281500 18010KT P6SM VCSH OVC008
     FM281700 19011KT P6SM VCSH BKN015
     FM281800 19011KT P6SM VCSH BKN025
     FM282000 19012KT P6SM VCSH BKN045
     FM290000 18009KT P6SM VCSH SCT040 BKN080=

USA.gov is the U.S. government's official web portal to all federal, state and local government web resources and services.